Time,TemperatureF,DewpointF,PressureIn,WindDirection,WindDirectionDegrees,WindSpeedMPH,WindSpeedGustMPH,Humidity,HourlyPrecipIn,Conditions,Clouds,dailyrainin,SoftwareType,DateUTC
2013-03-23 00:02:00,26.6,-5.3,30.09,WSW,256,15.0,15.0,24,-99.99,,---,-99.99,VWS V14.01,2013-03-23 07:02:00,
2013-03-23 00:07:00,26.6,-5.3,30.09,WSW,244,16.3,16.3,24,-99.99,,---,-99.99,VWS V14.01,2013-03-23 07:07:00,
2013-03-23 00:12:00,26.6,-5.3,30.09,WSW,243,16.8,17.4,24,-99.99,,---,-99.99,VWS V14.01,2013-03-23 07:12:00,
2013-03-23 00:17:00,26.6,-5.3,30.12,WSW,244,21.0,21.0,24,-99.99,,---,-99.99,VWS V14.01,2013-03-23 07:17:00,
2013-03-23 00:22:00,26.6,-5.3,30.12,WSW,251,16.8,16.8,24,-99.99,,---,-99.99,VWS V14.01,2013-03-23 07:22:00,
2013-03-23 00:27:00,26.6,-5.3,30.12,WSW,247,20.1,20.1,24,-99.99,,---,-99.99,VWS V14.01,2013-03-23 07:27:00,
2013-03-23 00:32:00,26.6,-5.3,30.12,WSW,252,17.9,17.9,24,-99.99,,---,-99.99,VWS V14.01,2013-03-23 07:32:00,
2013-03-23 00:37:00,26.6,-5.3,30.12,WSW,253,15.0,15.0,24,-99.99,,---,-99.99,VWS V14.01,2013-03-23 07:37:00,
2013-03-23 00:42:00,26.6,-5.3,30.12,WSW,253,15.9,15.9,24,-99.99,,---,-99.99,VWS V14.01,2013-03-23 07:42:00,
2013-03-23 00:47:00,26.6,-5.3,30.12,WSW,251,18.3,18.3,24,-99.99,,---,-99.99,VWS V14.01,2013-03-23 07:47:00,
2013-03-23 00:52:00,26.6,-5.3,30.12,WSW,254,17.4,17.4,24,-99.99,,---,-99.99,VWS V14.01,2013-03-23 07:52:00,
2013-03-23 00:57:00,26.6,-5.3,30.12,West,259,15.0,15.0,24,-99.99,,---,-99.99,VWS V14.01,2013-03-23 07:57:00,
2013-03-23 01:02:00,26.6,-5.3,30.12,West,261,17.4,17.4,24,-99.99,,---,-99.99,VWS V14.01,2013-03-23 08:02:00,
2013-03-23 01:07:00,26.6,-5.3,30.12,WSW,254,19.2,19.2,24,-99.99,,---,-99.99,VWS V14.01,2013-03-23 08:07:00,
2013-03-23 01:12:00,26.6,-5.3,30.12,WSW,250,17.4,17.4,24,-99.99,,---,-99.99,VWS V14.01,2013-03-23 08:12:00,
2013-03-23 01:17:00,26.6,-5.3,30.12,WSW,254,18.8,18.8,24,-99.99,,---,-99.99,VWS V14.01,2013-03-23 08:17:00,
2013-03-23 01:22:00,26.6,-5.3,30.12,WSW,254,18.3,18.3,24,-99.99,,---,-99.99,VWS V14.01,2013-03-23 08:22:00,
2013-03-23 01:27:00,26.6,-5.3,30.12,West,259,20.1,20.1,24,-99.99,,---,-99.99,VWS V14.01,2013-03-23 08:27:00,
2013-03-23 01:32:00,26.6,-5.3,30.12,WSW,256,21.0,21.0,24,-99.99,,---,-99.99,VWS V14.01,2013-03-23 08:32:00,
2013-03-23 01:37:00,26.6,-5.3,30.12,WSW,255,20.1,20.1,24,-99.99,,---,-99.99,VWS V14.01,2013-03-23 08:37:00,
2013-03-23 01:42:00,26.6,-5.3,30.12,West,259,17.4,17.4,24,-99.99,,---,-99.99,VWS V14.01,2013-03-23 08:42:00,
2013-03-23 01:47:00,26.6,-5.3,30.12,WSW,258,15.0,15.0,24,-99.99,,---,-99.99,VWS V14.01,2013-03-23 08:47:00,
2013-03-23 01:52:00,26.6,-5.3,30.12,West,262,17.4,17.4,24,-99.99,,---,-99.99,VWS V14.01,2013-03-23 08:52:00,
2013-03-23 01:57:00,26.6,-5.3,30.12,West,260,19.7,19.7,24,-99.99,,---,-99.99,VWS V14.01,2013-03-23 08:57:00,
2013-03-23 02:02:00,26.6,-5.3,30.12,WSW,257,19.2,19.2,24,-99.99,,---,-99.99,VWS V14.01,2013-03-23 09:02:00,
2013-03-23 02:07:00,26.6,-5.3,30.12,West,261,23.3,23.3,24,-99.99,,---,-99.99,VWS V14.01,2013-03-23 09:07:00,
2013-03-23 02:12:00,26.6,-5.3,30.12,West,266,19.2,19.2,24,-99.99,,---,-99.99,VWS V14.01,2013-03-23 09:12:00,
2013-03-23 02:17:00,26.6,-5.3,30.12,WSW,256,22.8,22.8,24,-99.99,,---,-99.99,VWS V14.01,2013-03-23 09:17:00,
2013-03-23 02:22:00,34.3,-2.6,30.12,West,264,12.3,12.3,20,-99.99,,---,-99.99,VWS V14.01,2013-03-23 09:22:00,
2013-03-23 02:27:00,34.3,-2.6,30.12,West,259,20.6,20.6,20,-99.99,,---,-99.99,VWS V14.01,2013-03-23 09:27:00,
2013-03-23 02:32:00,34.9,-2.1,30.12,West,259,17.0,17.0,20,-99.99,,---,-99.99,VWS V14.01,2013-03-23 09:32:00,
2013-03-23 02:37:00,34.7,-2.3,30.12,West,270,25.5,25.5,20,-99.99,,---,-99.99,VWS V14.01,2013-03-23 09:37:00,
2013-03-23 02:42:00,34.7,-2.3,30.12,West,268,14.1,21.5,20,-99.99,,---,-99.99,VWS V14.01,2013-03-23 09:42:00,
2013-03-23 02:47:00,33.8,-3.0,30.12,West,263,22.4,22.4,20,-99.99,,---,-99.99,VWS V14.01,2013-03-23 09:47:00,
2013-03-23 02:52:00,33.8,-3.0,30.12,West,270,19.7,19.7,20,-99.99,,---,-99.99,VWS V14.01,2013-03-23 09:52:00,
2013-03-23 02:57:00,33.6,-3.2,30.12,West,261,17.0,17.0,20,-99.99,,---,-99.99,VWS V14.01,2013-03-23 09:57:00,
2013-03-23 03:02:00,33.6,-3.2,30.12,West,264,19.2,19.2,20,-99.99,,---,-99.99,VWS V14.01,2013-03-23 10:02:00,
2013-03-23 03:07:00,33.4,-3.3,30.12,West,263,19.2,19.2,20,-99.99,,---,-99.99,VWS V14.01,2013-03-23 10:07:00,
2013-03-23 03:12:00,33.3,-3.5,30.12,West,265,22.4,22.4,20,-99.99,,---,-99.99,VWS V14.01,2013-03-23 10:12:00,
2013-03-23 03:17:00,33.3,-3.5,30.12,WSW,253,18.8,18.8,20,-99.99,,---,-99.99,VWS V14.01,2013-03-23 10:17:00,
2013-03-23 03:22:00,33.1,-3.6,30.12,West,261,19.7,19.7,20,-99.99,,---,-99.99,VWS V14.01,2013-03-23 10:22:00,
2013-03-23 03:27:00,33.1,-3.6,30.12,West,264,17.9,23.7,20,-99.99,,---,-99.99,VWS V14.01,2013-03-23 10:27:00,
2013-03-23 03:32:00,33.3,-3.5,30.12,West,259,18.8,18.8,20,-99.99,,---,-99.99,VWS V14.01,2013-03-23 10:32:00,
2013-03-23 03:37:00,33.6,-3.2,30.12,WSW,252,23.3,23.3,20,-99.99,,---,-99.99,VWS V14.01,2013-03-23 10:37:00,
2013-03-23 03:43:00,33.6,-3.2,30.12,West,261,19.2,19.2,20,-99.99,,---,-99.99,VWS V14.01,2013-03-23 10:43:00,
2013-03-23 03:48:00,34.0,-2.9,30.12,West,267,25.5,25.5,20,-99.99,,---,-99.99,VWS V14.01,2013-03-23 10:48:00,
2013-03-23 03:53:00,34.0,-2.9,30.12,West,267,19.2,19.2,20,-99.99,,---,-99.99,VWS V14.01,2013-03-23 10:53:00,
2013-03-23 03:58:00,34.9,-2.1,30.12,West,263,23.3,23.3,20,-99.99,,---,-99.99,VWS V14.01,2013-03-23 10:58:00,
2013-03-23 04:03:00,34.9,-2.1,30.12,West,265,23.3,23.3,20,-99.99,,---,-99.99,VWS V14.01,2013-03-23 11:03:00,
2013-03-23 04:08:00,34.2,-2.7,30.12,West,269,23.7,23.7,20,-99.99,,---,-99.99,VWS V14.01,2013-03-23 11:08:00,
2013-03-23 04:13:00,34.0,-2.9,30.12,West,267,21.9,21.9,20,-99.99,,---,-99.99,VWS V14.01,2013-03-23 11:13:00,
2013-03-23 04:18:00,34.0,-2.9,30.12,West,262,23.3,23.3,20,-99.99,,---,-99.99,VWS V14.01,2013-03-23 11:18:00,
2013-03-23 04:23:00,34.3,-2.6,30.12,West,267,23.7,23.7,20,-99.99,,---,-99.99,VWS V14.01,2013-03-23 11:23:00,
2013-03-23 04:28:00,34.3,-2.6,30.12,West,265,25.5,25.5,20,-99.99,,---,-99.99,VWS V14.01,2013-03-23 11:28:00,
2013-03-23 04:33:00,34.5,-2.4,30.12,West,264,22.8,22.8,20,-99.99,,---,-99.99,VWS V14.01,2013-03-23 11:33:00,
2013-03-23 04:38:00,34.9,-2.1,30.12,West,270,26.2,26.2,20,-99.99,,---,-99.99,VWS V14.01,2013-03-23 11:38:00,
2013-03-23 04:43:00,34.9,-2.1,30.12,West,263,22.4,22.4,20,-99.99,,---,-99.99,VWS V14.01,2013-03-23 11:43:00,
2013-03-23 04:48:00,35.1,-2.0,30.12,West,271,27.5,27.5,20,-99.99,,---,-99.99,VWS V14.01,2013-03-23 11:48:00,
2013-03-23 04:53:00,35.1,-2.0,30.12,WSW,258,20.1,20.1,20,-99.99,,---,-99.99,VWS V14.01,2013-03-23 11:53:00,
2013-03-23 04:58:00,35.6,-2.6,30.12,West,260,25.5,25.5,19,-99.99,,---,-99.99,VWS V14.01,2013-03-23 11:58:00,
2013-03-23 05:03:00,35.6,-2.6,30.12,West,262,24.2,24.2,19,-99.99,,---,-99.99,VWS V14.01,2013-03-23 12:03:00,
2013-03-23 05:08:00,35.2,-1.8,30.12,WSW,252,23.7,23.7,20,-99.99,,---,-99.99,VWS V14.01,2013-03-23 12:08:00,
2013-03-23 05:13:00,35.1,-2.0,30.12,West,266,25.7,26.2,20,-99.99,,---,-99.99,VWS V14.01,2013-03-23 12:13:00,
2013-03-23 05:18:00,35.2,-1.8,30.12,West,273,26.2,26.2,20,-99.99,,---,-99.99,VWS V14.01,2013-03-23 12:18:00,
2013-03-23 05:23:00,35.2,-1.8,30.12,West,266,27.1,27.1,20,-99.99,,---,-99.99,VWS V14.01,2013-03-23 12:23:00,
2013-03-23 05:28:00,35.2,-1.8,30.12,West,266,25.7,25.7,20,-99.99,,---,-99.99,VWS V14.01,2013-03-23 12:28:00,
2013-03-23 05:33:00,35.4,-1.6,30.12,WSW,255,28.9,28.9,20,-99.99,,---,-99.99,VWS V14.01,2013-03-23 12:33:00,
2013-03-23 05:38:00,35.4,-1.6,30.12,West,263,25.1,25.1,20,-99.99,,---,-99.99,VWS V14.01,2013-03-23 12:38:00,
2013-03-23 05:43:00,35.4,-1.6,30.12,West,261,26.2,26.2,20,-99.99,,---,-99.99,VWS V14.01,2013-03-23 12:43:00,
2013-03-23 05:48:00,35.6,-2.6,30.12,West,264,26.2,26.2,19,-99.99,,---,-99.99,VWS V14.01,2013-03-23 12:48:00,
2013-03-23 05:53:00,35.6,-2.6,30.12,West,268,28.0,28.0,19,-99.99,,---,-99.99,VWS V14.01,2013-03-23 12:53:00,
2013-03-23 05:58:00,35.6,-2.6,30.12,West,276,30.2,30.2,19,-99.99,,---,-99.99,VWS V14.01,2013-03-23 12:58:00,
2013-03-23 06:03:00,35.6,-2.6,30.09,West,272,22.8,22.8,19,-99.99,,---,-99.99,VWS V14.01,2013-03-23 13:03:00,
2013-03-23 06:08:00,35.8,-2.4,30.09,West,259,25.5,25.5,19,-99.99,,---,-99.99,VWS V14.01,2013-03-23 13:08:00,
2013-03-23 06:13:00,35.8,-2.4,30.09,WSW,257,18.3,18.3,19,-99.99,,---,-99.99,VWS V14.01,2013-03-23 13:13:00,
2013-03-23 06:18:00,35.8,-2.4,30.09,West,276,25.5,25.5,19,-99.99,,---,-99.99,VWS V14.01,2013-03-23 13:18:00,
2013-03-23 06:23:00,36.1,-2.1,30.09,West,273,20.6,20.6,19,-99.99,,---,-99.99,VWS V14.01,2013-03-23 13:23:00,
2013-03-23 06:28:00,35.8,-2.4,30.09,West,279,21.5,21.5,19,-99.99,,---,-99.99,VWS V14.01,2013-03-23 13:28:00,
2013-03-23 06:33:00,35.8,-2.4,30.09,WSW,254,25.1,25.1,19,-99.99,,---,-99.99,VWS V14.01,2013-03-23 13:33:00,
2013-03-23 06:38:00,35.8,-2.4,30.09,West,260,20.1,20.1,19,-99.99,,---,-99.99,VWS V14.01,2013-03-23 13:38:00,
2013-03-23 06:43:00,35.8,-2.4,30.09,West,266,21.5,21.5,19,-99.99,,---,-99.99,VWS V14.01,2013-03-23 13:43:00,
2013-03-23 06:48:00,35.8,-2.4,30.09,West,271,24.2,24.2,19,-99.99,,---,-99.99,VWS V14.01,2013-03-23 13:48:00,
2013-03-23 06:53:00,36.0,-2.3,30.09,West,263,24.2,24.2,19,-99.99,,---,-99.99,VWS V14.01,2013-03-23 13:53:00,
2013-03-23 06:58:00,36.1,-2.1,30.09,West,281,25.5,25.5,19,-99.99,,---,-99.99,VWS V14.01,2013-03-23 13:58:00,
2013-03-23 07:03:00,36.0,-2.3,30.09,West,259,25.1,25.1,19,-99.99,,---,-99.99,VWS V14.01,2013-03-23 14:03:00,
2013-03-23 07:08:00,36.3,-2.0,30.09,West,270,25.7,25.7,19,-99.99,,---,-99.99,VWS V14.01,2013-03-23 14:08:00,
2013-03-23 07:13:00,36.3,-2.0,30.09,West,261,21.9,21.9,19,-99.99,,---,-99.99,VWS V14.01,2013-03-23 14:13:00,
2013-03-23 07:18:00,36.5,-1.8,30.09,West,271,21.5,21.5,19,-99.99,,---,-99.99,VWS V14.01,2013-03-23 14:18:00,
2013-03-23 07:23:00,36.5,-1.8,30.09,West,277,25.7,25.7,19,-99.99,,---,-99.99,VWS V14.01,2013-03-23 14:23:00,
2013-03-23 07:28:00,36.5,-1.8,30.09,WSW,258,23.7,23.7,19,-99.99,,---,-99.99,VWS V14.01,2013-03-23 14:28:00,
2013-03-23 07:33:00,36.7,1.4,30.09,WSW,255,21.5,21.5,22,-99.99,,---,-99.99,VWS V14.01,2013-03-23 14:33:00,
2013-03-23 07:38:00,36.7,1.4,30.09,West,270,19.7,19.7,22,-99.99,,---,-99.99,VWS V14.01,2013-03-23 14:38:00,
2013-03-23 07:43:00,37.2,1.9,30.09,West,260,19.2,19.2,22,-99.99,,---,-99.99,VWS V14.01,2013-03-23 14:43:00,
2013-03-23 07:49:00,37.4,1.0,30.09,West,264,24.2,24.2,21,-99.99,,---,-99.99,VWS V14.01,2013-03-23 14:49:00,
2013-03-23 07:54:00,37.4,1.0,30.09,West,272,26.2,26.2,21,-99.99,,---,-99.99,VWS V14.01,2013-03-23 14:54:00,
2013-03-23 07:59:00,37.6,1.2,30.09,West,268,23.7,23.7,21,-99.99,,---,-99.99,VWS V14.01,2013-03-23 14:59:00,
2013-03-23 08:04:00,37.9,1.5,30.09,West,276,17.4,17.4,21,-99.99,,---,-99.99,VWS V14.01,2013-03-23 15:04:00,
2013-03-23 08:09:00,37.9,1.5,30.09,West,269,19.2,19.2,21,-99.99,,---,-99.99,VWS V14.01,2013-03-23 15:09:00,
2013-03-23 08:14:00,38.1,1.6,30.09,West,274,17.4,17.4,21,-99.99,,---,-99.99,VWS V14.01,2013-03-23 15:14:00,
2013-03-23 08:19:00,38.1,1.6,30.09,West,260,21.5,21.5,21,-99.99,,---,-99.99,VWS V14.01,2013-03-23 15:19:00,
2013-03-23 08:24:00,38.7,2.1,30.09,WSW,257,18.8,19.7,21,-99.99,,---,-99.99,VWS V14.01,2013-03-23 15:24:00,
2013-03-23 08:29:00,38.5,2.0,30.09,West,272,21.0,21.0,21,-99.99,,---,-99.99,VWS V14.01,2013-03-23 15:29:00,
2013-03-23 08:34:00,38.8,2.3,30.09,West,265,15.4,15.4,21,-99.99,,---,-99.99,VWS V14.01,2013-03-23 15:34:00,
2013-03-23 08:39:00,38.8,2.3,30.09,West,273,12.8,12.8,21,-99.99,,---,-99.99,VWS V14.01,2013-03-23 15:39:00,
2013-03-23 08:44:00,39.2,2.6,30.15,West,262,19.7,19.7,21,-99.99,,---,-99.99,VWS V14.01,2013-03-23 15:44:00,
2013-03-23 08:49:00,39.4,2.7,30.15,West,269,15.0,15.0,21,-99.99,,---,-99.99,VWS V14.01,2013-03-23 15:49:00,
2013-03-23 08:54:00,39.4,2.7,30.15,West,262,19.2,19.2,21,-99.99,,---,-99.99,VWS V14.01,2013-03-23 15:54:00,
2013-03-23 08:59:00,39.4,2.7,30.15,West,259,23.3,23.3,21,-99.99,,---,-99.99,VWS V14.01,2013-03-23 15:59:00,
2013-03-23 09:04:00,39.4,2.7,30.15,West,259,23.3,23.3,21,-99.99,,---,-99.99,VWS V14.01,2013-03-23 16:04:00,
2013-03-23 09:09:00,39.7,3.0,30.15,West,259,23.3,23.3,21,-99.99,,---,-99.99,VWS V14.01,2013-03-23 16:09:00,
2013-03-23 09:14:00,39.7,3.0,30.15,West,259,23.3,23.3,21,-99.99,,---,-99.99,VWS V14.01,2013-03-23 16:14:00,
2013-03-23 09:19:00,40.5,3.6,30.15,West,259,23.3,23.3,21,-99.99,,---,-99.99,VWS V14.01,2013-03-23 16:19:00,
2013-03-23 09:24:00,40.6,3.8,30.15,West,259,23.3,23.3,21,-99.99,,---,-99.99,VWS V14.01,2013-03-23 16:24:00,
2013-03-23 09:29:00,40.6,3.8,30.15,West,259,23.3,23.3,21,-99.99,,---,-99.99,VWS V14.01,2013-03-23 16:29:00,
2013-03-23 09:34:00,41.2,4.2,30.15,West,259,23.3,23.3,21,-99.99,,---,-99.99,VWS V14.01,2013-03-23 16:34:00,
2013-03-23 09:39:00,41.5,4.5,30.15,West,259,23.3,23.3,21,-99.99,,---,-99.99,VWS V14.01,2013-03-23 16:39:00,
2013-03-23 09:44:00,41.7,4.7,30.15,West,259,23.3,23.3,21,-99.99,,---,-99.99,VWS V14.01,2013-03-23 16:44:00,
2013-03-23 09:49:00,42.6,5.4,30.15,West,259,23.3,23.3,21,-99.99,,---,-99.99,VWS V14.01,2013-03-23 16:49:00,
2013-03-23 09:54:00,42.6,5.4,30.12,West,259,23.3,23.3,21,-99.99,,---,-99.99,VWS V14.01,2013-03-23 16:54:00,
2013-03-23 09:59:00,43.3,5.0,30.12,West,259,23.3,23.3,20,-99.99,,---,-99.99,VWS V14.01,2013-03-23 16:59:00,
2013-03-23 10:04:00,43.5,5.1,30.15,West,259,23.3,23.3,20,-99.99,,---,-99.99,VWS V14.01,2013-03-23 17:04:00,
2013-03-23 10:09:00,43.9,5.4,30.15,West,259,23.3,23.3,20,-99.99,,---,-99.99,VWS V14.01,2013-03-23 17:09:00,
2013-03-23 10:14:00,44.2,5.7,30.15,West,259,23.3,23.3,20,-99.99,,---,-99.99,VWS V14.01,2013-03-23 17:14:00,
2013-03-23 10:19:00,44.4,5.9,30.15,West,259,23.3,23.3,20,-99.99,,---,-99.99,VWS V14.01,2013-03-23 17:19:00,
2013-03-23 10:24:00,44.6,6.0,30.15,West,259,23.3,23.3,20,-99.99,,---,-99.99,VWS V14.01,2013-03-23 17:24:00,
2013-03-23 10:29:00,44.6,6.0,30.15,West,259,23.3,23.3,20,-99.99,,---,-99.99,VWS V14.01,2013-03-23 17:29:00,
2013-03-23 10:34:00,44.8,6.2,30.15,West,259,23.3,23.3,20,-99.99,,---,-99.99,VWS V14.01,2013-03-23 17:34:00,
2013-03-23 10:39:00,44.8,6.2,30.15,West,259,23.3,23.3,20,-99.99,,---,-99.99,VWS V14.01,2013-03-23 17:39:00,
2013-03-23 10:44:00,45.1,6.5,30.15,West,259,23.3,23.3,20,-99.99,,---,-99.99,VWS V14.01,2013-03-23 17:44:00,
2013-03-23 10:49:00,46.4,6.4,30.15,West,259,23.3,23.3,19,-99.99,,---,-99.99,VWS V14.01,2013-03-23 17:49:00,
2013-03-23 10:54:00,46.6,6.5,30.15,West,259,23.3,23.3,19,-99.99,,---,-99.99,VWS V14.01,2013-03-23 17:54:00,
2013-03-23 10:59:00,46.6,6.5,30.15,West,259,23.3,23.3,19,-99.99,,---,-99.99,VWS V14.01,2013-03-23 17:59:00,
2013-03-23 11:04:00,47.7,7.4,30.15,West,259,23.3,23.3,19,-99.99,,---,-99.99,VWS V14.01,2013-03-23 18:04:00,
2013-03-23 11:09:00,47.5,7.3,30.15,West,259,23.3,23.3,19,-99.99,,---,-99.99,VWS V14.01,2013-03-23 18:09:00,
2013-03-23 11:14:00,47.8,7.6,30.15,West,259,23.3,23.3,19,-99.99,,---,-99.99,VWS V14.01,2013-03-23 18:14:00,
2013-03-23 11:19:00,47.8,7.6,30.15,West,259,23.3,23.3,19,-99.99,,---,-99.99,VWS V14.01,2013-03-23 18:19:00,
2013-03-23 11:24:00,47.8,7.6,30.15,West,259,23.3,23.3,19,-99.99,,---,-99.99,VWS V14.01,2013-03-23 18:24:00,
2013-03-23 11:29:00,48.4,8.0,30.15,West,259,23.3,23.3,19,-99.99,,---,-99.99,VWS V14.01,2013-03-23 18:29:00,
2013-03-23 11:35:00,47.8,7.6,30.15,West,259,23.3,23.3,19,-99.99,,---,-99.99,VWS V14.01,2013-03-23 18:35:00,
2013-03-23 11:40:00,48.0,7.7,30.15,West,259,23.3,23.3,19,-99.99,,---,-99.99,VWS V14.01,2013-03-23 18:40:00,
2013-03-23 11:45:00,48.2,7.9,30.15,West,259,23.3,23.3,19,-99.99,,---,-99.99,VWS V14.01,2013-03-23 18:45:00,
2013-03-23 11:50:00,48.2,7.9,30.15,West,259,23.3,23.3,19,-99.99,,---,-99.99,VWS V14.01,2013-03-23 18:50:00,
2013-03-23 11:55:00,48.7,8.3,30.15,West,259,23.3,23.3,19,-99.99,,---,-99.99,VWS V14.01,2013-03-23 18:55:00,
2013-03-23 12:00:00,48.6,8.2,30.15,West,259,23.3,23.3,19,-99.99,,---,-99.99,VWS V14.01,2013-03-23 19:00:00,
2013-03-23 12:05:00,48.2,7.9,30.15,West,259,23.3,23.3,19,-99.99,,---,-99.99,VWS V14.01,2013-03-23 19:05:00,
2013-03-23 12:10:00,48.9,8.5,30.15,WSW,246,8.3,23.3,19,-99.99,,---,-99.99,VWS V14.01,2013-03-23 19:10:00,
2013-03-23 12:15:00,48.2,7.9,30.15,WSW,256,8.7,8.7,19,-99.99,,---,-99.99,VWS V14.01,2013-03-23 19:15:00,
2013-03-23 12:20:00,48.2,7.9,30.15,West,275,8.3,8.3,19,-99.99,,---,-99.99,VWS V14.01,2013-03-23 19:20:00,
2013-03-23 12:25:00,48.4,8.0,30.15,WSW,258,6.3,6.3,19,-99.99,,---,-99.99,VWS V14.01,2013-03-23 19:25:00,
2013-03-23 12:30:00,48.7,8.3,30.15,West,273,8.7,8.7,19,-99.99,,---,-99.99,VWS V14.01,2013-03-23 19:30:00,
2013-03-23 12:35:00,48.9,8.5,30.15,WSW,253,6.3,6.3,19,-99.99,,---,-99.99,VWS V14.01,2013-03-23 19:35:00,
2013-03-23 12:40:00,48.7,8.3,30.15,WSW,250,10.1,10.1,19,-99.99,,---,-99.99,VWS V14.01,2013-03-23 19:40:00,
2013-03-23 12:45:00,49.1,8.6,30.15,WSW,257,0.0,10.1,19,-99.99,,---,-99.99,VWS V14.01,2013-03-23 19:45:00,
2013-03-23 12:50:00,49.5,8.9,30.15,WSW,246,0.0,0.0,19,-99.99,,---,-99.99,VWS V14.01,2013-03-23 19:50:00,
2013-03-23 12:55:00,50.0,9.4,30.15,West,269,0.0,0.0,19,-99.99,,---,-99.99,VWS V14.01,2013-03-23 19:55:00,
2013-03-23 13:00:00,50.2,9.5,30.15,WNW,292,0.0,0.0,19,-99.99,,---,-99.99,VWS V14.01,2013-03-23 20:00:00,
2013-03-23 13:05:00,50.4,9.7,30.15,West,263,0.0,0.0,19,-99.99,,---,-99.99,VWS V14.01,2013-03-23 20:05:00,
2013-03-23 13:10:00,50.2,9.5,30.15,West,268,0.0,0.0,19,-99.99,,---,-99.99,VWS V14.01,2013-03-23 20:10:00,
2013-03-23 13:15:00,50.0,9.4,30.15,WSW,245,0.0,0.0,19,-99.99,,---,-99.99,VWS V14.01,2013-03-23 20:15:00,
2013-03-23 13:20:00,50.9,10.1,30.15,West,265,0.0,0.0,19,-99.99,,---,-99.99,VWS V14.01,2013-03-23 20:20:00,
2013-03-23 13:25:00,50.7,10.0,30.15,West,259,0.0,0.0,19,-99.99,,---,-99.99,VWS V14.01,2013-03-23 20:25:00,
2013-03-23 13:30:00,50.9,10.1,30.15,West,265,0.0,0.0,19,-99.99,,---,-99.99,VWS V14.01,2013-03-23 20:30:00,
2013-03-23 13:35:00,51.6,10.7,30.15,NW,321,0.0,0.0,19,-99.99,,---,-99.99,VWS V14.01,2013-03-23 20:35:00,
2013-03-23 13:40:00,52.3,10.1,30.15,WSW,251,0.0,0.0,18,-99.99,,---,-99.99,VWS V14.01,2013-03-23 20:40:00,
2013-03-23 13:45:00,52.3,10.1,30.15,West,274,0.0,0.0,18,-99.99,,---,-99.99,VWS V14.01,2013-03-23 20:45:00,
2013-03-23 13:50:00,52.5,10.2,30.15,West,260,0.0,0.0,18,-99.99,,---,-99.99,VWS V14.01,2013-03-23 20:50:00,
2013-03-23 13:55:00,52.3,10.1,30.12,West,273,0.0,0.0,18,-99.99,,---,-99.99,VWS V14.01,2013-03-23 20:55:00,
2013-03-23 14:00:00,51.3,10.4,30.12,WSW,254,0.0,0.0,19,-99.99,,---,-99.99,VWS V14.01,2013-03-23 21:00:00,
2013-03-23 14:05:00,51.4,10.6,30.12,WSW,249,0.0,0.0,19,-99.99,,---,-99.99,VWS V14.01,2013-03-23 21:05:00,
2013-03-23 14:10:00,51.6,10.7,30.12,West,261,0.0,0.0,19,-99.99,,---,-99.99,VWS V14.01,2013-03-23 21:10:00,
2013-03-23 14:15:00,51.3,10.4,30.12,WSW,241,0.0,0.0,19,-99.99,,---,-99.99,VWS V14.01,2013-03-23 21:15:00,
2013-03-23 14:20:00,51.4,10.6,30.12,SW,229,0.0,0.0,19,-99.99,,---,-99.99,VWS V14.01,2013-03-23 21:20:00,
2013-03-23 14:25:00,51.3,10.4,30.12,West,264,0.0,0.0,19,-99.99,,---,-99.99,VWS V14.01,2013-03-23 21:25:00,
2013-03-23 14:30:00,51.4,10.6,30.12,West,260,0.0,0.0,19,-99.99,,---,-99.99,VWS V14.01,2013-03-23 21:30:00,
2013-03-23 14:35:00,51.6,10.7,30.12,West,267,0.0,0.0,19,-99.99,,---,-99.99,VWS V14.01,2013-03-23 21:35:00,
2013-03-23 14:40:00,51.6,10.7,30.12,West,272,0.0,0.0,19,-99.99,,---,-99.99,VWS V14.01,2013-03-23 21:40:00,
2013-03-23 14:45:00,51.3,10.4,30.12,WSW,243,5.4,5.4,19,-99.99,,---,-99.99,VWS V14.01,2013-03-23 21:45:00,
2013-03-23 14:50:00,50.5,9.8,30.12,West,270,5.8,5.8,19,-99.99,,---,-99.99,VWS V14.01,2013-03-23 21:50:00,
2013-03-23 14:56:00,51.1,10.3,30.12,WSW,239,5.4,5.4,19,-99.99,,---,-99.99,VWS V14.01,2013-03-23 21:56:00,
2013-03-23 15:01:00,50.7,10.0,30.12,WSW,245,8.1,8.1,19,-99.99,,---,-99.99,VWS V14.01,2013-03-23 22:01:00,
2013-03-23 15:06:00,50.5,9.8,30.12,SW,223,8.1,8.1,19,-99.99,,---,-99.99,VWS V14.01,2013-03-23 22:06:00,
2013-03-23 15:11:00,50.2,9.5,30.12,SW,223,8.1,8.1,19,-99.99,,---,-99.99,VWS V14.01,2013-03-23 22:11:00,
2013-03-23 15:16:00,49.8,9.2,30.12,SW,233,8.7,8.7,19,-99.99,,---,-99.99,VWS V14.01,2013-03-23 22:16:00,
2013-03-23 15:21:00,49.8,9.2,30.12,SW,221,6.3,8.7,19,-99.99,,---,-99.99,VWS V14.01,2013-03-23 22:21:00,
2013-03-23 15:26:00,49.8,9.2,30.12,SW,233,10.5,10.5,19,-99.99,,---,-99.99,VWS V14.01,2013-03-23 22:26:00,
2013-03-23 15:31:00,50.2,9.5,30.12,SW,223,5.4,8.3,19,-99.99,,---,-99.99,VWS V14.01,2013-03-23 22:31:00,
2013-03-23 15:36:00,51.1,10.3,30.12,SW,223,5.4,5.4,19,-99.99,,---,-99.99,VWS V14.01,2013-03-23 22:36:00,
2013-03-23 15:41:00,50.5,9.8,30.12,WSW,242,10.1,10.1,19,-99.99,,---,-99.99,VWS V14.01,2013-03-23 22:41:00,
2013-03-23 15:46:00,50.0,9.4,30.12,WSW,242,10.1,10.1,19,-99.99,,---,-99.99,VWS V14.01,2013-03-23 22:46:00,
2013-03-23 15:51:00,49.8,9.2,30.12,SSW,193,9.6,9.6,19,-99.99,,---,-99.99,VWS V14.01,2013-03-23 22:51:00,
2013-03-23 15:56:00,48.7,8.3,30.12,SW,225,7.6,7.6,19,-99.99,,---,-99.99,VWS V14.01,2013-03-23 22:56:00,
2013-03-23 16:01:00,48.6,8.2,30.12,SSW,192,4.0,4.0,19,-99.99,,---,-99.99,VWS V14.01,2013-03-23 23:01:00,
2013-03-23 16:06:00,48.2,7.9,30.12,SW,235,5.4,5.4,19,-99.99,,---,-99.99,VWS V14.01,2013-03-23 23:06:00,
2013-03-23 16:11:00,48.4,8.0,30.12,SW,235,5.4,5.4,19,-99.99,,---,-99.99,VWS V14.01,2013-03-23 23:11:00,
2013-03-23 16:16:00,48.0,7.7,30.09,SW,221,9.2,9.2,19,-99.99,,---,-99.99,VWS V14.01,2013-03-23 23:16:00,
2013-03-23 16:21:00,47.8,7.6,30.09,SW,225,7.6,9.2,19,-99.99,,---,-99.99,VWS V14.01,2013-03-23 23:21:00,
2013-03-23 16:26:00,47.1,7.0,30.09,SW,224,10.5,10.5,19,-99.99,,---,-99.99,VWS V14.01,2013-03-23 23:26:00,
2013-03-23 16:31:00,46.6,6.5,30.09,SW,229,13.2,13.2,19,-99.99,,---,-99.99,VWS V14.01,2013-03-23 23:31:00,
2013-03-23 16:37:00,46.6,6.5,30.09,SW,229,13.2,13.2,19,-99.99,,---,-99.99,VWS V14.01,2013-03-23 23:37:00,
2013-03-23 16:42:00,46.6,6.5,30.09,WSW,239,12.8,12.8,19,-99.99,,---,-99.99,VWS V14.01,2013-03-23 23:42:00,
2013-03-23 16:47:00,46.0,7.2,30.09,SW,225,11.0,12.8,20,-99.99,,---,-99.99,VWS V14.01,2013-03-23 23:47:00,
2013-03-23 16:52:00,45.7,6.9,30.09,SW,230,10.1,10.1,20,-99.99,,---,-99.99,VWS V14.01,2013-03-23 23:52:00,
2013-03-23 16:57:00,45.1,6.5,30.09,SW,231,11.0,13.2,20,-99.99,,---,-99.99,VWS V14.01,2013-03-23 23:57:00,
2013-03-23 17:02:00,44.8,6.2,30.09,SW,227,12.8,12.8,20,-99.99,,---,-99.99,VWS V14.01,2013-03-24 00:02:00,
2013-03-23 17:07:00,44.4,5.9,30.09,SSW,200,8.1,8.1,20,-99.99,,---,-99.99,VWS V14.01,2013-03-24 00:07:00,
2013-03-23 17:12:00,43.3,5.0,30.09,SSW,200,8.1,8.1,20,-99.99,,---,-99.99,VWS V14.01,2013-03-24 00:12:00,
2013-03-23 17:17:00,42.4,5.3,30.09,SW,225,11.0,11.0,21,-99.99,,---,-99.99,VWS V14.01,2013-03-24 00:17:00,
2013-03-23 17:22:00,42.6,5.4,30.09,SW,229,15.4,15.4,21,-99.99,,---,-99.99,VWS V14.01,2013-03-24 00:22:00,
2013-03-23 17:27:00,42.8,4.5,30.09,SSW,205,13.2,13.2,20,-99.99,,---,-99.99,VWS V14.01,2013-03-24 00:27:00,
2013-03-23 17:32:00,42.3,5.1,30.09,SSW,208,15.0,15.0,21,-99.99,,---,-99.99,VWS V14.01,2013-03-24 00:32:00,
2013-03-23 17:37:00,42.4,5.3,30.09,SSW,208,15.0,15.0,21,-99.99,,---,-99.99,VWS V14.01,2013-03-24 00:37:00,
2013-03-23 17:42:00,42.1,5.0,30.09,SSW,207,15.4,15.4,21,-99.99,,---,-99.99,VWS V14.01,2013-03-24 00:42:00,
2013-03-23 17:47:00,40.8,3.9,30.09,SSW,207,15.4,15.4,21,-99.99,,---,-99.99,VWS V14.01,2013-03-24 00:47:00,
2013-03-23 17:52:00,40.5,3.6,30.09,SSW,203,13.6,13.6,21,-99.99,,---,-99.99,VWS V14.01,2013-03-24 00:52:00,
2013-03-23 17:57:00,40.3,3.5,30.09,SW,234,15.0,15.0,21,-99.99,,---,-99.99,VWS V14.01,2013-03-24 00:57:00,
2013-03-23 18:02:00,39.7,3.0,30.09,SW,234,15.0,15.0,21,-99.99,,---,-99.99,VWS V14.01,2013-03-24 01:02:00,
2013-03-23 18:07:00,39.4,2.7,30.09,SW,216,12.8,12.8,21,-99.99,,---,-99.99,VWS V14.01,2013-03-24 01:07:00,
2013-03-23 18:12:00,39.2,2.6,30.09,SW,216,12.8,12.8,21,-99.99,,---,-99.99,VWS V14.01,2013-03-24 01:12:00,
2013-03-23 18:17:00,38.8,2.3,30.09,SW,225,15.4,15.4,21,-99.99,,---,-99.99,VWS V14.01,2013-03-24 01:17:00,
2013-03-23 18:22:00,38.7,2.1,30.09,SW,236,16.8,16.8,21,-99.99,,---,-99.99,VWS V14.01,2013-03-24 01:22:00,
2013-03-23 18:27:00,38.1,1.6,30.09,SW,236,16.8,16.8,21,-99.99,,---,-99.99,VWS V14.01,2013-03-24 01:27:00,
2013-03-23 18:32:00,37.9,1.5,30.09,SW,235,16.8,16.8,21,-99.99,,---,-99.99,VWS V14.01,2013-03-24 01:32:00,
2013-03-23 18:37:00,37.8,1.4,30.09,SW,235,16.8,16.8,21,-99.99,,---,-99.99,VWS V14.01,2013-03-24 01:37:00,
2013-03-23 18:43:00,37.6,1.2,30.09,SSW,211,18.8,18.8,21,-99.99,,---,-99.99,VWS V14.01,2013-03-24 01:43:00,
2013-03-23 18:48:00,37.4,1.0,30.09,SW,224,20.6,20.6,21,-99.99,,---,-99.99,VWS V14.01,2013-03-24 01:48:00,
2013-03-23 18:53:00,37.2,1.9,30.09,SW,224,20.6,20.6,22,-99.99,,---,-99.99,VWS V14.01,2013-03-24 01:53:00,
2013-03-23 18:58:00,37.0,-1.4,30.09,SW,223,14.1,14.1,19,-99.99,,---,-99.99,VWS V14.01,2013-03-24 01:58:00,
2013-03-23 19:03:00,37.0,-1.4,30.09,SW,223,14.1,14.1,19,-99.99,,---,-99.99,VWS V14.01,2013-03-24 02:03:00,
2013-03-23 19:08:00,36.9,-1.5,30.09,SW,220,16.8,16.8,19,-99.99,,---,-99.99,VWS V14.01,2013-03-24 02:08:00,
2013-03-23 19:13:00,36.5,-1.8,30.09,SW,220,16.8,16.8,19,-99.99,,---,-99.99,VWS V14.01,2013-03-24 02:13:00,
2013-03-23 19:18:00,36.3,-2.0,30.09,SW,214,14.1,14.1,19,-99.99,,---,-99.99,VWS V14.01,2013-03-24 02:18:00,
2013-03-23 19:23:00,36.3,-2.0,30.12,SW,226,17.9,17.9,19,-99.99,,---,-99.99,VWS V14.01,2013-03-24 02:23:00,
2013-03-23 19:28:00,36.3,-2.0,30.12,SW,226,17.9,17.9,19,-99.99,,---,-99.99,VWS V14.01,2013-03-24 02:28:00,
2013-03-23 19:33:00,36.1,-2.1,30.12,SW,226,15.0,15.0,19,-99.99,,---,-99.99,VWS V14.01,2013-03-24 02:33:00,
2013-03-23 19:38:00,36.0,-2.3,30.12,SW,226,15.0,15.0,19,-99.99,,---,-99.99,VWS V14.01,2013-03-24 02:38:00,
2013-03-23 19:43:00,35.8,-2.4,30.12,SW,221,17.4,17.4,19,-99.99,,---,-99.99,VWS V14.01,2013-03-24 02:43:00,
2013-03-23 19:48:00,36.0,-2.3,30.12,SW,229,17.4,17.4,19,-99.99,,---,-99.99,VWS V14.01,2013-03-24 02:48:00,
2013-03-23 19:53:00,36.1,-2.1,30.12,SW,229,17.4,17.4,19,-99.99,,---,-99.99,VWS V14.01,2013-03-24 02:53:00,
2013-03-23 19:58:00,36.1,-2.1,30.12,SW,227,20.6,20.6,19,-99.99,,---,-99.99,VWS V14.01,2013-03-24 02:58:00,
2013-03-23 20:03:00,36.1,-2.1,30.12,SW,227,20.6,20.6,19,-99.99,,---,-99.99,VWS V14.01,2013-03-24 03:03:00,
2013-03-23 20:08:00,36.0,-2.3,30.12,SW,215,15.4,15.4,19,-99.99,,---,-99.99,VWS V14.01,2013-03-24 03:08:00,
2013-03-23 20:13:00,36.1,-2.1,30.12,SW,215,15.4,15.4,19,-99.99,,---,-99.99,VWS V14.01,2013-03-24 03:13:00,
2013-03-23 20:18:00,36.1,-2.1,30.12,SW,219,18.8,18.8,19,-99.99,,---,-99.99,VWS V14.01,2013-03-24 03:18:00,
2013-03-23 20:23:00,36.3,-2.0,30.12,SW,235,17.0,17.0,19,-99.99,,---,-99.99,VWS V14.01,2013-03-24 03:23:00,
2013-03-23 20:28:00,36.3,-2.0,30.12,SW,235,17.0,17.0,19,-99.99,,---,-99.99,VWS V14.01,2013-03-24 03:28:00,
2013-03-23 20:33:00,36.1,-2.1,30.12,SW,235,17.0,17.0,19,-99.99,,---,-99.99,VWS V14.01,2013-03-24 03:33:00,
2013-03-23 20:38:00,35.8,-2.4,30.12,SW,235,17.0,17.0,19,-99.99,,---,-99.99,VWS V14.01,2013-03-24 03:38:00,
2013-03-23 20:43:00,35.4,-1.6,30.12,SW,223,17.4,17.4,20,-99.99,,---,-99.99,VWS V14.01,2013-03-24 03:43:00,
2013-03-23 20:48:00,35.2,-1.8,30.12,SW,221,16.3,17.4,20,-99.99,,---,-99.99,VWS V14.01,2013-03-24 03:48:00,
2013-03-23 20:53:00,35.2,-1.8,30.12,SW,221,16.3,16.3,20,-99.99,,---,-99.99,VWS V14.01,2013-03-24 03:53:00,
2013-03-23 20:58:00,35.4,-1.6,30.12,SW,221,16.3,16.3,20,-99.99,,---,-99.99,VWS V14.01,2013-03-24 03:58:00,
2013-03-23 21:00:00,35.4,-1.6,30.12,SW,221,16.3,16.3,20,-99.99,,---,-99.99,VWS V14.01,2013-03-24 04:00:00,
2013-03-23 21:01:00,35.4,-1.6,30.12,SW,221,16.3,16.3,20,-99.99,,---,-99.99,VWS V14.01,2013-03-24 04:01:00,
2013-03-23 21:06:00,35.1,-2.0,30.12,SW,221,16.3,16.3,20,-99.99,,---,-99.99,VWS V14.01,2013-03-24 04:06:00,
2013-03-23 21:11:00,34.9,-2.1,30.12,SW,221,16.3,16.3,20,-99.99,,---,-99.99,VWS V14.01,2013-03-24 04:11:00,
2013-03-23 21:16:00,34.7,-2.3,30.12,SSW,210,21.0,21.0,20,-99.99,,---,-99.99,VWS V14.01,2013-03-24 04:16:00,
2013-03-23 21:21:00,34.3,-2.6,30.12,SSW,210,21.0,21.0,20,-99.99,,---,-99.99,VWS V14.01,2013-03-24 04:21:00,
2013-03-23 21:26:00,34.2,-2.7,30.12,SSW,210,21.0,21.0,20,-99.99,,---,-99.99,VWS V14.01,2013-03-24 04:26:00,
2013-03-23 21:31:00,34.2,-2.7,30.12,SSW,210,21.0,21.0,20,-99.99,,---,-99.99,VWS V14.01,2013-03-24 04:31:00,
2013-03-23 21:36:00,34.3,-2.6,30.12,SSW,210,21.0,21.0,20,-99.99,,---,-99.99,VWS V14.01,2013-03-24 04:36:00,
2013-03-23 21:41:00,34.3,-2.6,30.12,SSW,210,21.0,21.0,20,-99.99,,---,-99.99,VWS V14.01,2013-03-24 04:41:00,
2013-03-23 21:46:00,34.3,-2.6,30.12,SSW,210,21.0,21.0,20,-99.99,,---,-99.99,VWS V14.01,2013-03-24 04:46:00,
2013-03-23 21:51:00,34.3,-2.6,30.12,SSW,210,21.0,21.0,20,-99.99,,---,-99.99,VWS V14.01,2013-03-24 04:51:00,
2013-03-23 21:56:00,34.5,-2.4,30.12,SSW,210,21.0,21.0,20,-99.99,,---,-99.99,VWS V14.01,2013-03-24 04:56:00,
2013-03-23 22:01:00,34.5,-2.4,30.12,SSW,210,21.0,21.0,20,-99.99,,---,-99.99,VWS V14.01,2013-03-24 05:01:00,
2013-03-23 22:06:00,34.9,-2.1,30.12,SSW,210,21.0,21.0,20,-99.99,,---,-99.99,VWS V14.01,2013-03-24 05:06:00,
2013-03-23 22:11:00,34.9,-2.1,30.12,SSW,210,21.0,21.0,20,-99.99,,---,-99.99,VWS V14.01,2013-03-24 05:11:00,
2013-03-23 22:16:00,34.9,-2.1,30.12,SSW,210,21.0,21.0,20,-99.99,,---,-99.99,VWS V14.01,2013-03-24 05:16:00,
2013-03-23 22:21:00,34.7,-2.3,30.12,SSW,210,21.0,21.0,20,-99.99,,---,-99.99,VWS V14.01,2013-03-24 05:21:00,
2013-03-23 22:27:00,34.7,-2.3,30.12,SSW,210,21.0,21.0,20,-99.99,,---,-99.99,VWS V14.01,2013-03-24 05:27:00,
2013-03-23 22:32:00,34.9,-2.1,30.12,SSW,210,21.0,21.0,20,-99.99,,---,-99.99,VWS V14.01,2013-03-24 05:32:00,
2013-03-23 22:37:00,34.9,-2.1,30.12,SSW,210,21.0,21.0,20,-99.99,,---,-99.99,VWS V14.01,2013-03-24 05:37:00,
2013-03-23 22:42:00,35.1,-2.0,30.12,WSW,250,23.7,23.7,20,-99.99,,---,-99.99,VWS V14.01,2013-03-24 05:42:00,
2013-03-23 22:47:00,34.9,-2.1,30.15,WSW,250,23.7,23.7,20,-99.99,,---,-99.99,VWS V14.01,2013-03-24 05:47:00,
2013-03-23 22:52:00,35.2,-1.8,30.15,WSW,250,23.7,23.7,20,-99.99,,---,-99.99,VWS V14.01,2013-03-24 05:52:00,
2013-03-23 22:57:00,35.4,-1.6,30.15,WSW,250,23.7,23.7,20,-99.99,,---,-99.99,VWS V14.01,2013-03-24 05:57:00,
2013-03-23 23:02:00,35.4,-1.6,30.15,WSW,250,23.7,23.7,20,-99.99,,---,-99.99,VWS V14.01,2013-03-24 06:02:00,
2013-03-23 23:07:00,35.4,-1.6,30.15,WSW,250,23.7,23.7,20,-99.99,,---,-99.99,VWS V14.01,2013-03-24 06:07:00,
2013-03-23 23:12:00,35.4,-1.6,30.15,WSW,250,23.7,23.7,20,-99.99,,---,-99.99,VWS V14.01,2013-03-24 06:12:00,
2013-03-23 23:17:00,35.4,-1.6,30.15,WSW,250,23.7,23.7,20,-99.99,,---,-99.99,VWS V14.01,2013-03-24 06:17:00,
2013-03-23 23:22:00,35.6,-2.6,30.15,WSW,250,23.7,23.7,19,-99.99,,---,-99.99,VWS V14.01,2013-03-24 06:22:00,
2013-03-23 23:27:00,35.4,-1.6,30.15,WSW,250,23.7,23.7,20,-99.99,,---,-99.99,VWS V14.01,2013-03-24 06:27:00,
2013-03-23 23:32:00,35.4,-1.6,30.15,WSW,250,23.7,23.7,20,-99.99,,---,-99.99,VWS V14.01,2013-03-24 06:32:00,
2013-03-23 23:37:00,35.2,-1.8,30.15,WSW,250,23.7,23.7,20,-99.99,,---,-99.99,VWS V14.01,2013-03-24 06:37:00,
2013-03-23 23:42:00,35.1,-2.0,30.15,WSW,250,23.7,23.7,20,-99.99,,---,-99.99,VWS V14.01,2013-03-24 06:42:00,
2013-03-23 23:47:00,35.1,-2.0,30.15,WSW,250,23.7,23.7,20,-99.99,,---,-99.99,VWS V14.01,2013-03-24 06:47:00,
2013-03-23 23:52:00,35.1,-2.0,30.15,WSW,250,23.7,23.7,20,-99.99,,---,-99.99,VWS V14.01,2013-03-24 06:52:00,
2013-03-23 23:57:00,34.9,-2.1,30.15,WSW,250,23.7,23.7,20,-99.99,,---,-99.99,VWS V14.01,2013-03-24 06:57:00,